EW5003 Weather Reports


Display with metric or nautical units.
time (UTC)temp
F
wind
direction
speed
MPH
gust
MPH
rain 1hr
in
rain 24hr
in
rain mn
in
humidity
%
barometer
mb
20220120043151 43 40 4.0 21.0 0.00 0.00 0.00 58 1021.1
20220120041617 44 340 15.0 24.0 0.00 0.00 0.00 58 1020.7
20220120040126 46 309 9.0 24.0 0.00 0.00 0.00 58 1020.7
20220120034640 47 16 6.0 28.0 0.00 0.00 0.00 57 1020.3
20220120033058 49 329 9.0 25.0 0.00 0.00 0.00 56 1019.6
20220120031552 51 23 8.0 24.0 0.00 0.00 0.00 55 1019.2
20220120030103 55 329 11.0 22.0 0.00 0.00 0.00 56 1018.6
20220120024528 56 5 10.0 21.0 0.00 0.00 0.00 55 1018.1
20220120023059 58 5 8.0 21.0 0.00 0.00 0.00 54 1017.5
20220120021546 59 22 8.0 24.0 0.00 0.00 0.00 53 1016.9
20220120020018 59 5 4.0 27.0 0.00 0.00 0.00 51 1015.9
20220120014522 60 20 16.0 31.0 0.00 0.00 0.00 50 1014.5
20220120013010 61 20 17.0 30.0 0.00 0.00 0.00 48 1014.3
20220120011511 62 49 21.0 32.0 0.00 0.00 0.00 46 1014.0
20220120010016 64 44 15.0 28.0 0.00 0.00 0.00 44 1013.6
20220120004505 66 19 21.0 35.0 0.00 0.00 0.00 42 1012.9
20220120003011 68 62 14.0 24.0 0.00 0.00 0.00 41 1012.5
20220120001506 70 5 11.0 24.0 0.00 0.00 0.00 41 1012.2
20220120000035 72 105 10.0 26.0 0.00 0.00 0.00 43 1011.4
20220119234500 73 46 0.0 5.0 0.00 0.00 0.00 42 1010.8
20220119233120 74 36 1.0 8.0 0.00 0.00 0.00 40 1010.5
20220119231736 76 51 0.0 2.0 0.00 0.00 0.00 40 1010.3
20220119230201 77 18 0.0 0.0 0.00 0.00 0.00 41 1010.3
20220119224625 79 18 0.0 2.0 0.00 0.00 0.00 40 1010.1
20220119223144 80 132 0.0 1.0 0.00 0.00 0.00 38 1010.1
20220119221615 80 221 0.0 2.0 0.00 0.00 0.00 41 1010.1
20220119220147 79 211 0.0 5.0 0.00 0.00 0.00 42 1010.1
20220119214608 79 220 0.0 5.0 0.00 0.00 0.00 43 1010.0
20220119213222 79 228 0.0 6.0 0.00 0.00 0.00 43 1010.2
20220119211618 79 234 0.0 7.0 0.00 0.00 0.00 44 1010.1
20220119210120 79 200 0.0 7.0 0.00 0.00 0.00 45 1010.1
20220119204609 79 221 0.0 8.0 0.00 0.00 0.00 46 1010.0
20220119203139 78 238 0.0 5.0 0.00 0.00 0.00 47 1010.1
20220119201550 78 244 0.0 4.0 0.00 0.00 0.00 49 1010.2
20220119200034 77 300 0.0 6.0 0.00 0.00 0.00 50 1010.4
20220119194539 76 213 0.0 8.0 0.00 0.00 0.00 54 1010.5
20220119193027 76 232 0.0 4.0 0.00 0.00 0.00 56 1010.9
20220119191538 74 205 0.0 6.0 0.00 0.00 0.00 58 1011.3
20220119190036 74 261 0.0 6.0 0.00 0.00 0.00 61 1011.4
20220119184517 73 240 0.0 1.0 0.00 0.00 0.00 66 1011.7
20220119183012 72 253 0.0 5.0 0.00 0.00 0.00 70 1011.9
20220119181521 71 173 0.0 6.0 0.00 0.00 0.00 73 1012.3
20220119180004 70 207 0.0 4.0 0.00 0.00 0.00 75 1012.5
20220119174502 69 242 0.0 7.0 0.00 0.00 0.00 77 1012.9
20220119173317 68 211 0.0 6.0 0.00 0.00 0.00 81 1013.3
20220119171627 66 250 0.0 2.0 0.00 0.00 0.00 85 1013.3
20220119170125 65 227 0.0 0.0 0.00 0.00 0.00 88 1013.4
20220119164630 64 217 0.0 0.0 0.00 0.00 0.00 88 1013.7
20220119163104 63 217 0.0 4.0 0.00 0.00 0.00 89 1013.7
20220119161609 63 259 0.0 2.0 0.00 0.00 0.00 90 1013.9
20220119160109 63 296 0.0 4.0 0.00 0.00 0.00 91 1014.2
20220119154554 63 303 0.0 0.0 0.00 0.00 0.00 91 1013.9
20220119153115 63 290 0.0 2.0 0.00 0.00 0.00 91 1013.7
20220119151545 63 298 0.0 0.0 0.00 0.00 0.00 91 1013.5
20220119150028 63 246 0.0 0.0 0.00 0.00 0.00 91 1013.2
20220119144558 62 234 0.0 0.0 0.00 0.00 0.00 91 1013.0
20220119143151 62 234 0.0 0.0 0.00 0.00 0.00 91 1012.8
20220119141527 62 235 0.0 0.0 0.00 0.00 0.00 90 1012.8
20220119140037 62 235 0.0 0.0 0.00 0.00 0.00 90 1012.7
20220119134534 62 235 0.0 0.0 0.00 0.00 0.00 90 1012.7
20220119133048 63 243 0.0 6.0 0.00 0.00 0.00 89 1012.5
20220119131531 63 217 0.0 6.0 0.00 0.00 0.00 89 1012.3
20220119130015 63 255 0.0 8.0 0.00 0.00 0.00 89 1012.2
20220119124525 63 243 0.0 4.0 0.00 0.00 0.00 89 1012.0
20220119123021 63 219 0.0 1.0 0.00 0.00 0.00 88 1011.3
20220119121521 63 235 0.0 6.0 0.00 0.00 0.00 88 1011.3
20220119120015 63 240 0.0 10.0 0.00 0.00 0.00 88 1011.1
20220119114532 63 221 2.0 9.0 0.00 0.00 0.00 88 1011.2
20220119113015 63 210 0.0 9.0 0.00 0.00 0.00 88 1011.2
20220119111533 63 211 0.0 12.0 0.00 0.00 0.00 88 1011.0
20220119110014 63 244 0.0 8.0 0.00 0.00 0.00 88 1011.0
20220119104539 63 228 0.0 7.0 0.00 0.00 0.00 89 1010.8
20220119103009 63 217 0.0 9.0 0.00 0.00 0.00 89 1011.1
20220119101526 63 209 0.0 10.0 0.00 0.00 0.00 89 1011.1
20220119100031 62 213 0.0 10.0 0.00 0.00 0.00 89 1010.9
20220119094502 62 187 0.0 6.0 0.00 0.00 0.00 89 1011.2
20220119093003 62 215 0.0 10.0 0.00 0.00 0.00 89 1011.3
20220119091605 62 230 0.0 8.0 0.00 0.00 0.00 89 1011.3
20220119090214 61 220 0.0 4.0 0.00 0.00 0.00 89 1011.4
20220119084609 61 221 0.0 1.0 0.00 0.00 0.00 89 1011.5
20220119083057 61 144 0.0 2.0 0.00 0.00 0.00 89 1011.6
20220119081640 60 216 0.0 4.0 0.00 0.00 0.00 89 1011.7
20220119080152 60 223 0.0 5.0 0.00 0.00 0.00 88 1011.9
20220119074647 60 183 0.0 0.0 0.00 0.00 0.00 88 1012.4
20220119073100 60 184 0.0 4.0 0.00 0.00 0.00 87 1012.3
20220119071642 60 190 0.0 4.0 0.00 0.00 0.00 87 1012.1
20220119070107 60 198 0.0 5.0 0.00 0.00 0.00 86 1012.4
20220119064611 60 209 1.0 9.0 0.00 0.00 0.00 86 1012.5
20220119063117 60 174 0.0 8.0 0.00 0.00 0.00 85 1012.3
20220119061610 60 213 0.0 4.0 0.00 0.00 0.00 85 1012.7
20220119060154 60 199 0.0 6.0 0.00 0.00 0.00 84 1012.6
20220119054538 61 180 0.0 7.0 0.00 0.00 0.00 83 1012.7
20220119053106 61 202 0.0 6.0 0.00 0.00 0.00 82 1012.6
20220119051604 61 215 0.0 9.0 0.00 0.00 0.00 81 1012.7
20220119050039 61 217 1.0 10.0 0.00 0.00 0.00 81 1012.5
20220119044604 61 204 0.0 9.0 0.00 0.00 0.00 79 1012.4